Torrance, Pennsylvania
Current Conditions -  °F | °C
As of 6:45 AM on Tuesday 21 Oct 2014 (Local Time) from KLBE Reporting Station
Haze Haze  
Wind Chill: 52°   Ceiling: 1100
Heat Index: 52°   Visibility: 5mi
Dew Point: 52°   Wind: 7mph
Humidity: 100%   Direction: 220°SW
Pressure: 29.86"   Gusts: NA
Location:  40.42°N, 79.22°W
Report Text: KLBE 211045Z 22006KT 5SM BR BKN011 OVC016 11/11 A2986
Loading
Personal Weather Stations






























Interactive Weather Map
Tropical Storm Tracking
New forecast layout! Learn more

10-Day Weather Forecast

Advertisements
Track Severe Weather on mobile